Terminal Aerodrome Forecast
Issued by NWS

Home | Current Version | Previous Version | Text Only | Print | Product List | Glossary On
Versions: 1 2 3 4 5 6 7 8 9 10 11 12 13 14 15 16 17 18 19 20 21 22 23
000
FTUS45 KSLC 211120
TAF36U
TAF
K36U 211120Z 2112/2212 VRB04KT P6SM SCT150
     FM211300 VRB05KT P6SM VCSH SCT060 BKN080
     FM211600 23009G16KT P6SM -RA SCT030 BKN040
     FM212200 22009KT P6SM VCSH SCT030 BKN060
     FM220300 VRB04KT P6SM SCT060=

USA.gov is the U.S. government's official web portal to all federal, state and local government web resources and services.